createdAt,value
2022-10-26T00:01:14.484Z,30.77
2022-10-26T00:03:43.550Z,30.52
2022-10-26T00:06:12.274Z,30.60
2022-10-26T00:08:39.856Z,41.17
2022-10-26T00:11:08.143Z,39.58
2022-10-26T00:13:36.615Z,37.28
2022-10-26T00:16:21.192Z,40.80
2022-10-26T00:18:48.837Z,31.15
2022-10-26T00:21:16.709Z,36.28
2022-10-26T00:23:44.033Z,43.17
2022-10-26T00:26:11.702Z,44.88
2022-10-26T00:28:39.818Z,41.67
2022-10-26T00:31:11.697Z,38.50
2022-10-26T00:33:39.060Z,42.25
2022-10-26T00:36:06.810Z,47.03
2022-10-26T00:38:34.158Z,44.03
2022-10-26T00:41:01.392Z,34.85
2022-10-26T00:43:28.705Z,24.17
2022-10-26T00:45:59.401Z,30.65
2022-10-26T00:48:30.811Z,26.48
2022-10-26T00:51:01.445Z,30.08
2022-10-26T00:53:30.326Z,27.73
2022-10-26T00:55:57.761Z,27.42
2022-10-26T00:58:26.413Z,27.85
2022-10-26T01:00:53.833Z,24.65
2022-10-26T01:03:22.534Z,25.77
2022-10-26T01:05:50.066Z,24.85
2022-10-26T01:11:01.083Z,19.90
2022-10-26T01:13:31.363Z,21.20
2022-10-26T01:16:08.783Z,16.83
2022-10-26T01:18:52.940Z,18.80
2022-10-26T01:22:00.709Z,16.88
2022-10-26T01:24:47.114Z,22.58
2022-10-26T01:27:29.750Z,22.05
2022-10-26T01:30:14.306Z,20.80
2022-10-26T01:32:53.830Z,16.80
2022-10-26T01:35:21.175Z,17.00
2022-10-26T01:37:59.113Z,20.30
2022-10-26T01:40:45.076Z,16.05
2022-10-26T01:43:15.615Z,18.73
2022-10-26T01:45:46.595Z,20.67
2022-10-26T01:48:18.349Z,16.60
2022-10-26T01:50:48.593Z,22.65
2022-10-26T01:53:17.191Z,18.10
2022-10-26T01:55:51.534Z,21.63
2022-10-26T01:59:19.791Z,22.75
2022-10-26T02:01:51.082Z,22.42
2022-10-26T02:04:38.190Z,17.55
2022-10-26T02:07:22.159Z,20.48
2022-10-26T02:10:08.850Z,18.95
2022-10-26T02:12:54.379Z,20.08
2022-10-26T02:15:23.827Z,21.48
2022-10-26T02:18:04.494Z,19.85
2022-10-26T02:20:36.477Z,15.20
2022-10-26T02:23:07.724Z,15.65
2022-10-26T02:25:42.512Z,23.15
2022-10-26T02:28:18.640Z,32.90
2022-10-26T02:30:47.929Z,29.30
2022-10-26T02:33:16.436Z,32.38
2022-10-26T02:35:49.550Z,25.30
2022-10-26T02:38:19.989Z,30.30
2022-10-26T02:40:52.626Z,32.17
2022-10-26T02:43:22.478Z,25.75
2022-10-26T02:45:54.318Z,29.60
2022-10-26T02:48:22.869Z,27.70
2022-10-26T02:51:01.851Z,19.85
2022-10-26T02:53:52.084Z,27.95
2022-10-26T02:56:25.698Z,28.95
2022-10-26T02:58:58.581Z,28.23
2022-10-26T03:01:28.006Z,23.35
2022-10-26T03:03:59.305Z,24.42
2022-10-26T03:06:27.139Z,22.63
2022-10-26T03:08:54.737Z,24.38
2022-10-26T03:11:21.992Z,18.45
2022-10-26T03:13:49.317Z,22.35
2022-10-26T03:16:16.659Z,17.67
2022-10-26T03:18:44.058Z,15.38
2022-10-26T03:21:11.403Z,18.58
2022-10-26T03:23:38.775Z,15.40
2022-10-26T03:26:06.260Z,17.05
2022-10-26T03:28:33.521Z,18.38
2022-10-26T03:31:00.976Z,19.95
2022-10-26T03:33:28.497Z,20.27
2022-10-26T03:35:57.177Z,18.27
2022-10-26T03:38:24.909Z,18.95
2022-10-26T03:40:52.584Z,22.05
2022-10-26T03:43:20.290Z,19.52
2022-10-26T03:45:47.520Z,17.23
2022-10-26T03:48:14.919Z,17.13
2022-10-26T03:50:42.345Z,24.77
2022-10-26T03:53:10.289Z,20.40
2022-10-26T03:55:37.934Z,15.90
2022-10-26T03:58:05.465Z,19.95
2022-10-26T04:00:32.793Z,18.73
2022-10-26T04:03:01.063Z,18.77
2022-10-26T04:05:29.897Z,19.98
2022-10-26T04:07:59.205Z,19.08
2022-10-26T04:10:28.291Z,21.33
2022-10-26T04:12:56.252Z,18.25
2022-10-26T04:15:24.152Z,16.63
2022-10-26T04:17:59.523Z,15.82
2022-10-26T04:20:28.343Z,23.35
2022-10-26T04:23:06.594Z,15.02
2022-10-26T04:25:34.589Z,19.38
2022-10-26T04:28:03.733Z,21.60
2022-10-26T04:30:32.483Z,20.92
2022-10-26T04:33:00.649Z,26.33
2022-10-26T04:35:28.876Z,22.73
2022-10-26T04:38:04.386Z,15.30
2022-10-26T04:43:00.207Z,27.48
2022-10-26T04:45:33.735Z,22.65
2022-10-26T04:48:10.306Z,25.52
2022-10-26T04:50:38.338Z,24.52
2022-10-26T04:53:07.282Z,22.63
2022-10-26T04:55:35.275Z,21.70
2022-10-26T04:58:03.001Z,22.65
2022-10-26T05:00:33.127Z,18.75
2022-10-26T05:03:06.470Z,19.13
2022-10-26T05:05:35.377Z,22.92
2022-10-26T05:08:02.617Z,25.27
2022-10-26T05:10:30.238Z,21.00
2022-10-26T05:12:59.521Z,22.20
2022-10-26T05:15:27.657Z,19.83
2022-10-26T05:17:58.769Z,26.38
2022-10-26T05:20:30.975Z,25.25
2022-10-26T05:22:59.678Z,20.50
2022-10-26T05:25:31.086Z,24.98
2022-10-26T05:28:02.833Z,23.50
2022-10-26T05:30:31.696Z,24.38
2022-10-26T05:33:03.491Z,34.58
2022-10-26T05:35:31.942Z,31.90
2022-10-26T05:38:00.197Z,26.70
2022-10-26T05:40:28.037Z,23.90
2022-10-26T05:43:01.789Z,27.38
2022-10-26T05:45:29.623Z,23.80
2022-10-26T05:47:59.967Z,20.70
2022-10-26T05:50:29.967Z,22.60
2022-10-26T05:52:57.430Z,23.85
2022-10-26T05:55:25.273Z,22.73
2022-10-26T05:57:53.846Z,21.25
2022-10-26T06:00:26.383Z,25.67
2022-10-26T06:03:18.655Z,20.17
2022-10-26T06:05:56.751Z,19.23
2022-10-26T06:08:27.184Z,18.00
2022-10-26T06:10:55.892Z,23.50
2022-10-26T06:13:23.643Z,37.95
2022-10-26T06:16:09.511Z,34.88
2022-10-26T06:18:58.249Z,46.17
2022-10-26T06:21:45.248Z,45.40
2022-10-26T06:24:30.745Z,46.72
2022-10-26T06:26:57.966Z,46.30
2022-10-26T06:29:50.341Z,45.97
2022-10-26T06:32:18.153Z,38.40
2022-10-26T06:34:48.298Z,38.88
2022-10-26T06:37:15.940Z,32.80
2022-10-26T06:39:49.990Z,30.25
2022-10-26T06:42:20.840Z,39.88
2022-10-26T06:44:48.788Z,39.88
2022-10-26T06:47:34.896Z,31.25
2022-10-26T06:52:58.542Z,27.50
2022-10-26T06:55:27.646Z,35.53
2022-10-26T06:57:55.348Z,40.63
2022-10-26T07:00:25.497Z,40.20
2022-10-26T07:02:53.442Z,41.38
2022-10-26T07:05:21.269Z,32.90
2022-10-26T07:07:49.112Z,34.85
2022-10-26T07:10:16.865Z,38.88
2022-10-26T07:12:44.240Z,38.17
2022-10-26T07:15:12.540Z,49.05
2022-10-26T07:17:49.582Z,44.78
2022-10-26T07:20:20.394Z,38.15
2022-10-26T07:22:57.782Z,66.50
2022-10-26T07:25:26.701Z,67.03
2022-10-26T07:27:59.169Z,40.78
2022-10-26T07:30:30.426Z,51.88
2022-10-26T07:33:06.029Z,44.92
2022-10-26T07:35:34.425Z,58.45
2022-10-26T07:38:02.664Z,50.97
2022-10-26T07:40:30.299Z,55.30
2022-10-26T07:42:59.587Z,143.70
2022-10-26T07:45:27.487Z,68.60
2022-10-26T07:47:54.765Z,40.15
2022-10-26T07:50:22.901Z,36.55
2022-10-26T07:52:50.884Z,48.05
2022-10-26T07:55:19.428Z,49.67
2022-10-26T07:57:49.674Z,36.67
2022-10-26T08:00:21.334Z,43.30
2022-10-26T08:02:48.852Z,36.47
2022-10-26T08:05:16.267Z,41.70
2022-10-26T08:07:46.927Z,63.08
2022-10-26T08:10:15.298Z,40.42
2022-10-26T08:12:44.309Z,98.03
2022-10-26T08:15:11.853Z,44.28
2022-10-26T08:17:39.195Z,54.10
2022-10-26T08:20:07.037Z,36.60
2022-10-26T08:22:34.427Z,48.00
2022-10-26T08:25:01.730Z,56.60
2022-10-26T08:27:29.125Z,44.42
2022-10-26T08:29:56.517Z,44.78
2022-10-26T08:32:23.969Z,39.20
2022-10-26T08:34:51.321Z,38.78
2022-10-26T08:37:18.768Z,38.63
2022-10-26T08:39:49.104Z,31.42
2022-10-26T08:42:32.073Z,35.20
2022-10-26T08:45:07.992Z,53.65
2022-10-26T08:47:45.330Z,38.75
2022-10-26T08:50:21.516Z,44.15
2022-10-26T08:53:08.795Z,37.08
2022-10-26T08:55:46.571Z,32.15
2022-10-26T08:58:22.262Z,39.47
2022-10-26T09:00:51.224Z,43.08
2022-10-26T09:03:19.581Z,35.35
2022-10-26T09:06:22.736Z,47.40
2022-10-26T09:09:18.200Z,33.63
2022-10-26T09:11:48.475Z,42.22
2022-10-26T09:14:40.802Z,35.67
2022-10-26T09:17:24.387Z,36.88
2022-10-26T09:20:09.993Z,44.42
2022-10-26T09:22:52.440Z,36.92
2022-10-26T09:25:24.643Z,36.45
2022-10-26T09:27:59.827Z,33.40
2022-10-26T09:30:27.550Z,46.45
2022-10-26T09:33:15.490Z,34.72
2022-10-26T09:36:01.456Z,34.85
2022-10-26T09:38:37.343Z,34.22
2022-10-26T09:41:19.606Z,32.75
2022-10-26T09:44:02.222Z,25.27
2022-10-26T09:46:34.162Z,32.85
2022-10-26T09:49:07.113Z,31.67
2022-10-26T09:51:39.532Z,32.63
2022-10-26T09:54:18.939Z,39.03
2022-10-26T09:56:52.063Z,39.78
2022-10-26T09:59:22.922Z,29.65
2022-10-26T10:01:50.465Z,35.53
2022-10-26T10:04:23.274Z,33.33
2022-10-26T10:07:03.773Z,36.03
2022-10-26T10:09:31.194Z,38.53
2022-10-26T10:12:02.789Z,43.22
2022-10-26T10:14:37.397Z,34.17
2022-10-26T10:17:21.842Z,45.25
2022-10-26T10:19:49.899Z,32.78
2022-10-26T10:22:19.762Z,37.50
2022-10-26T10:25:01.811Z,29.60
2022-10-26T10:27:31.203Z,35.08
2022-10-26T10:30:04.012Z,27.40
2022-10-26T10:32:35.869Z,28.20
2022-10-26T10:35:25.202Z,25.90
2022-10-26T10:37:53.146Z,27.08
2022-10-26T10:40:24.205Z,28.73
2022-10-26T10:42:55.998Z,32.42
2022-10-26T10:45:26.645Z,33.25
2022-10-26T10:48:06.332Z,31.60
2022-10-26T10:50:36.681Z,31.45
2022-10-26T10:53:19.748Z,30.23
2022-10-26T10:56:07.653Z,30.23
2022-10-26T10:58:57.891Z,24.25
2022-10-26T11:01:32.731Z,36.17
2022-10-26T11:04:35.692Z,33.75
2022-10-26T11:07:06.989Z,31.38
2022-10-26T11:09:39.732Z,23.80
2022-10-26T11:12:18.142Z,32.95
2022-10-26T11:14:55.094Z,33.05
2022-10-26T11:17:31.934Z,41.42
2022-10-26T11:20:17.286Z,33.72
2022-10-26T11:22:56.759Z,25.88
2022-10-26T11:25:33.812Z,31.00
2022-10-26T11:28:39.427Z,26.23
2022-10-26T11:31:16.477Z,39.60
2022-10-26T11:34:02.180Z,31.80
2022-10-26T11:36:32.085Z,32.97
2022-10-26T11:39:16.075Z,26.60
2022-10-26T11:41:53.453Z,26.15
2022-10-26T11:44:39.097Z,29.05
2022-10-26T11:50:17.116Z,24.88
2022-10-26T11:52:52.283Z,30.85
2022-10-26T11:55:22.803Z,28.58
2022-10-26T11:57:54.197Z,34.05
2022-10-26T12:00:23.214Z,29.25
2022-10-26T12:03:02.444Z,25.13
2022-10-26T12:05:32.505Z,27.20
2022-10-26T12:08:06.207Z,27.30
2022-10-26T12:10:36.300Z,23.27
2022-10-26T12:13:27.737Z,39.10
2022-10-26T12:16:04.565Z,26.02
2022-10-26T12:18:59.885Z,34.50
2022-10-26T12:21:32.141Z,27.53
2022-10-26T12:24:22.448Z,31.38
2022-10-26T12:27:01.470Z,25.92
2022-10-26T12:29:40.632Z,23.23
2022-10-26T12:32:32.725Z,22.00
2022-10-26T12:35:02.613Z,21.77
2022-10-26T12:37:37.316Z,27.73
2022-10-26T12:40:33.803Z,29.15
2022-10-26T12:43:16.430Z,26.25
2022-10-26T12:46:07.805Z,20.90
2022-10-26T12:48:48.343Z,25.55
2022-10-26T12:51:27.621Z,36.72
2022-10-26T12:54:42.087Z,26.23
2022-10-26T12:57:28.900Z,25.17
2022-10-26T13:00:06.489Z,29.88
2022-10-26T13:02:42.715Z,28.50
2022-10-26T13:05:34.470Z,26.90
2022-10-26T13:08:05.186Z,32.50
2022-10-26T13:10:33.732Z,24.85
2022-10-26T13:13:03.336Z,30.40
2022-10-26T13:15:39.951Z,29.15
2022-10-26T13:18:19.062Z,24.83
2022-10-26T13:21:09.117Z,26.90
2022-10-26T13:23:41.093Z,33.70
2022-10-26T13:26:17.560Z,32.17
2022-10-26T13:28:53.890Z,30.48
2022-10-26T13:31:33.147Z,31.02
2022-10-26T13:34:20.610Z,27.40
2022-10-26T13:36:59.990Z,34.05
2022-10-26T13:39:38.704Z,32.08
2022-10-26T13:42:08.116Z,30.67
2022-10-26T13:44:56.711Z,32.42
2022-10-26T13:47:48.976Z,37.38
2022-10-26T13:50:21.611Z,31.08
2022-10-26T13:52:54.673Z,33.20
2022-10-26T13:55:54.962Z,29.27
2022-10-26T13:58:43.448Z,33.80
2022-10-26T14:01:11.953Z,27.00
2022-10-26T14:03:40.217Z,27.65
2022-10-26T14:06:15.606Z,30.42
2022-10-26T14:08:44.732Z,24.10
2022-10-26T14:11:15.886Z,20.75
2022-10-26T14:13:43.501Z,25.08
2022-10-26T14:16:14.197Z,20.30
2022-10-26T14:18:45.241Z,30.00
2022-10-26T14:21:19.230Z,19.23
2022-10-26T14:23:50.661Z,23.55
2022-10-26T14:26:30.107Z,22.25
2022-10-26T14:29:04.535Z,27.10
2022-10-26T14:31:34.309Z,29.57
2022-10-26T14:34:04.601Z,30.98
2022-10-26T14:36:55.543Z,28.27
2022-10-26T14:39:36.005Z,24.70
2022-10-26T14:42:21.089Z,27.02
2022-10-26T14:44:48.410Z,24.05
2022-10-26T14:47:24.755Z,28.95
2022-10-26T14:49:52.709Z,22.42
2022-10-26T14:52:29.027Z,28.80
2022-10-26T14:55:15.506Z,26.65
2022-10-26T14:57:45.679Z,20.40
2022-10-26T15:00:24.557Z,20.02
2022-10-26T15:02:57.504Z,25.60
2022-10-26T15:05:24.715Z,22.33
2022-10-26T15:07:53.358Z,26.90
2022-10-26T15:10:39.218Z,29.88
2022-10-26T15:13:19.293Z,32.22
2022-10-26T15:15:49.888Z,26.77
2022-10-26T15:18:30.372Z,25.10
2022-10-26T15:20:58.750Z,22.02
2022-10-26T15:23:28.146Z,23.38
2022-10-26T15:26:01.847Z,36.33
2022-10-26T15:28:39.132Z,25.67
2022-10-26T15:31:12.436Z,26.02
2022-10-26T15:33:44.677Z,32.53
2022-10-26T15:36:17.747Z,33.42
2022-10-26T15:38:46.535Z,34.75
2022-10-26T15:41:18.442Z,37.38
2022-10-26T15:43:49.899Z,31.65
2022-10-26T15:46:17.640Z,28.30
2022-10-26T15:48:50.190Z,32.90
2022-10-26T15:51:19.577Z,42.40
2022-10-26T15:53:46.962Z,39.33
2022-10-26T15:56:17.474Z,32.88
2022-10-26T15:58:45.466Z,46.75
2022-10-26T16:01:24.349Z,42.83
2022-10-26T16:03:52.800Z,41.92
2022-10-26T16:06:28.549Z,39.40
2022-10-26T16:08:58.529Z,36.63
2022-10-26T16:11:25.815Z,38.13
2022-10-26T16:13:54.459Z,35.10
2022-10-26T16:16:23.499Z,31.90
2022-10-26T16:19:11.754Z,30.38
2022-10-26T16:21:42.982Z,32.05
2022-10-26T16:24:10.449Z,34.42
2022-10-26T16:26:37.915Z,43.08
2022-10-26T16:29:05.271Z,43.80
2022-10-26T16:31:32.628Z,50.00
2022-10-26T16:34:03.154Z,50.05
2022-10-26T16:36:34.872Z,50.53
2022-10-26T16:41:35.072Z,53.25
2022-10-26T16:44:02.441Z,55.95
2022-10-26T16:46:29.829Z,51.47
2022-10-26T16:48:57.271Z,58.03
2022-10-26T16:51:27.393Z,56.33
2022-10-26T16:53:56.326Z,51.22
2022-10-26T16:56:27.663Z,55.70
2022-10-26T16:58:58.298Z,50.67
2022-10-26T17:01:31.150Z,58.75
2022-10-26T17:04:01.238Z,54.13
2022-10-26T17:06:28.648Z,59.47
2022-10-26T17:08:56.105Z,47.47
2022-10-26T17:11:23.544Z,45.92
2022-10-26T17:13:55.244Z,63.88
2022-10-26T17:16:24.582Z,66.72
2022-10-26T17:18:54.029Z,52.28
2022-10-26T17:21:32.354Z,53.33
2022-10-26T17:23:59.914Z,57.72
2022-10-26T17:26:27.568Z,63.08
2022-10-26T17:28:58.965Z,60.45
2022-10-26T17:31:26.842Z,59.17
2022-10-26T17:33:54.679Z,56.35
2022-10-26T17:36:23.655Z,55.45
2022-10-26T17:38:53.739Z,61.92
2022-10-26T17:41:22.384Z,59.85
2022-10-26T17:43:50.562Z,54.03
2022-10-26T17:46:23.212Z,59.40
2022-10-26T17:48:58.723Z,62.55
2022-10-26T17:51:28.102Z,54.15
2022-10-26T17:53:56.223Z,44.03
2022-10-26T17:56:26.323Z,49.53
2022-10-26T17:58:55.241Z,52.80
2022-10-26T18:01:23.343Z,53.63
2022-10-26T18:03:51.175Z,59.58
2022-10-26T18:06:19.660Z,51.05
2022-10-26T18:08:48.506Z,54.42
2022-10-26T18:11:25.322Z,56.92
2022-10-26T18:13:58.047Z,56.90
2022-10-26T18:16:27.838Z,51.92
2022-10-26T18:19:00.870Z,58.67
2022-10-26T18:21:32.750Z,59.25
2022-10-26T18:24:00.525Z,57.30
2022-10-26T18:26:29.852Z,49.35
2022-10-26T18:28:59.139Z,57.97
2022-10-26T18:31:28.347Z,58.83
2022-10-26T18:34:00.803Z,59.47
2022-10-26T18:36:29.445Z,57.10
2022-10-26T18:38:57.410Z,59.72
2022-10-26T18:41:26.312Z,70.30
2022-10-26T18:43:55.434Z,46.03
2022-10-26T18:46:28.574Z,54.67
2022-10-26T18:48:57.327Z,53.97
2022-10-26T18:51:29.212Z,51.13
2022-10-26T18:53:57.630Z,54.22
2022-10-26T18:56:25.936Z,54.08
2022-10-26T18:58:58.674Z,56.95
2022-10-26T19:01:29.270Z,61.13
2022-10-26T19:04:05.096Z,56.65
2022-10-26T19:06:33.813Z,54.17
2022-10-26T19:09:01.818Z,52.28
2022-10-26T19:11:31.507Z,50.25
2022-10-26T19:13:59.493Z,68.78
2022-10-26T19:16:45.480Z,70.65
2022-10-26T19:19:15.384Z,53.80
2022-10-26T19:21:42.900Z,55.67
2022-10-26T19:24:19.501Z,63.20
2022-10-26T19:26:47.697Z,60.58
2022-10-26T19:29:16.875Z,66.30
2022-10-26T19:31:46.367Z,61.63
2022-10-26T19:34:15.020Z,60.38
2022-10-26T19:36:45.391Z,49.00
2022-10-26T19:39:17.880Z,52.50
2022-10-26T19:41:46.509Z,50.72
2022-10-26T19:44:14.971Z,57.50
2022-10-26T19:46:43.841Z,52.08
2022-10-26T19:49:13.175Z,61.50
2022-10-26T19:51:41.018Z,60.25
2022-10-26T19:54:08.949Z,54.13
2022-10-26T19:56:38.065Z,52.53
2022-10-26T19:59:06.650Z,55.80
2022-10-26T20:01:34.435Z,54.65
2022-10-26T20:04:06.191Z,44.67
2022-10-26T20:06:33.855Z,44.67
2022-10-26T20:09:04.425Z,43.80
2022-10-26T20:11:36.810Z,44.30
2022-10-26T20:14:05.858Z,44.47
2022-10-26T20:16:33.295Z,49.13
2022-10-26T20:19:01.993Z,50.08
2022-10-26T20:21:30.142Z,46.92
2022-10-26T20:23:57.698Z,44.55
2022-10-26T20:26:28.288Z,42.28
2022-10-26T20:28:56.110Z,45.90
2022-10-26T20:31:23.822Z,48.95
2022-10-26T20:33:54.312Z,55.10
2022-10-26T20:36:22.540Z,54.80
2022-10-26T20:38:50.413Z,51.22
2022-10-26T20:41:18.270Z,49.67
2022-10-26T20:43:45.822Z,53.40
2022-10-26T20:46:23.184Z,39.40
2022-10-26T20:48:51.608Z,40.80
2022-10-26T20:52:26.261Z,39.28
2022-10-26T20:55:06.491Z,34.45
2022-10-26T20:57:36.073Z,41.35
2022-10-26T21:00:09.231Z,39.13
2022-10-26T21:02:36.977Z,38.88
2022-10-26T21:05:04.675Z,34.20
2022-10-26T21:07:32.049Z,35.95
2022-10-26T21:09:59.398Z,31.85
2022-10-26T21:12:26.623Z,42.65
2022-10-26T21:14:54.125Z,33.00
2022-10-26T21:17:21.481Z,36.65
2022-10-26T21:19:48.798Z,31.58
2022-10-26T21:22:16.217Z,30.45
2022-10-26T21:24:43.520Z,34.83
2022-10-26T21:27:10.894Z,39.55
2022-10-26T21:29:38.221Z,35.22
2022-10-26T21:32:05.929Z,29.52
2022-10-26T21:34:33.537Z,37.00
2022-10-26T21:37:00.946Z,37.03
2022-10-26T21:39:28.178Z,37.90
2022-10-26T21:41:55.695Z,31.27
2022-10-26T21:44:38.816Z,36.47
2022-10-26T21:47:08.285Z,28.77
2022-10-26T21:49:36.756Z,37.72
2022-10-26T21:52:04.477Z,34.90
2022-10-26T21:54:31.825Z,42.78
2022-10-26T21:56:59.208Z,37.08
2022-10-26T21:59:26.664Z,37.85
2022-10-26T22:01:54.150Z,28.20
2022-10-26T22:04:21.572Z,34.22
2022-10-26T22:06:50.028Z,39.75
2022-10-26T22:09:17.745Z,36.15
2022-10-26T22:11:45.106Z,39.58
2022-10-26T22:14:15.692Z,33.83
2022-10-26T22:16:43.020Z,35.25
2022-10-26T22:19:10.792Z,39.20
2022-10-26T22:21:41.500Z,42.92
2022-10-26T22:24:09.452Z,32.05
2022-10-26T22:26:37.913Z,45.75
2022-10-26T22:29:05.905Z,41.58
2022-10-26T22:31:37.340Z,43.80
2022-10-26T22:34:08.238Z,39.40
2022-10-26T22:36:36.075Z,44.53
2022-10-26T22:39:03.822Z,50.25
2022-10-26T22:41:31.162Z,50.13
2022-10-26T22:43:58.473Z,43.72
2022-10-26T22:46:27.950Z,41.92
2022-10-26T22:48:57.024Z,43.75
2022-10-26T22:51:27.270Z,36.45
2022-10-26T22:53:56.738Z,37.72
2022-10-26T22:58:58.029Z,33.75
2022-10-26T23:01:34.085Z,41.13
2022-10-26T23:04:01.513Z,40.47
2022-10-26T23:06:31.211Z,32.67
2022-10-26T23:08:58.878Z,34.55
2022-10-26T23:11:28.329Z,40.13
2022-10-26T23:14:00.265Z,29.83
2022-10-26T23:16:28.911Z,33.30
2022-10-26T23:18:56.598Z,37.42
2022-10-26T23:23:57.753Z,33.92
2022-10-26T23:26:25.749Z,28.13
2022-10-26T23:28:53.139Z,27.00
2022-10-26T23:31:25.905Z,27.60
2022-10-26T23:33:55.699Z,40.85
2022-10-26T23:36:23.961Z,31.20
2022-10-26T23:38:51.325Z,23.42
2022-10-26T23:41:18.748Z,30.40
2022-10-26T23:43:46.001Z,25.58
2022-10-26T23:46:13.500Z,29.92
2022-10-26T23:48:40.949Z,26.13
2022-10-26T23:51:08.467Z,41.03
2022-10-26T23:53:36.119Z,34.25
2022-10-26T23:56:03.699Z,29.10
2022-10-26T23:58:30.990Z,30.50
